createdAt,value
2024-04-13T00:02:55.284Z,21.88
2024-04-13T00:05:58.468Z,22.55
2024-04-13T00:09:02.121Z,20.80
2024-04-13T00:12:06.478Z,20.38
2024-04-13T00:15:11.301Z,23.85
2024-04-13T00:18:14.661Z,20.85
2024-04-13T00:21:18.197Z,21.17
2024-04-13T00:24:22.345Z,20.35
2024-04-13T00:27:26.112Z,20.58
2024-04-13T00:30:30.251Z,20.92
2024-04-13T00:33:35.033Z,20.25
2024-04-13T00:36:38.241Z,20.10
2024-04-13T00:39:42.028Z,17.85
2024-04-13T00:42:45.592Z,16.98
2024-04-13T00:45:50.670Z,15.55
2024-04-13T00:48:56.020Z,15.32
2024-04-13T00:52:00.952Z,15.80
2024-04-13T00:55:04.932Z,14.93
2024-04-13T00:58:09.149Z,16.83
2024-04-13T01:01:15.759Z,15.65
2024-04-13T01:04:23.770Z,15.20
2024-04-13T01:07:27.671Z,13.43
2024-04-13T01:10:31.293Z,14.30
2024-04-13T01:13:36.078Z,15.27
2024-04-13T01:16:40.662Z,14.45
2024-04-13T01:19:44.904Z,15.13
2024-04-13T01:22:49.082Z,14.65
2024-04-13T01:25:54.190Z,15.40
2024-04-13T01:28:58.082Z,16.30
2024-04-13T01:32:02.166Z,16.50
2024-04-13T01:35:13.641Z,15.02
2024-04-13T01:38:16.793Z,15.75
2024-04-13T01:41:21.199Z,16.50
2024-04-13T01:44:24.199Z,17.48
2024-04-13T01:47:28.796Z,18.88
2024-04-13T01:50:31.894Z,17.85
2024-04-13T01:53:35.660Z,17.58
2024-04-13T01:56:39.150Z,20.00
2024-04-13T01:59:43.732Z,18.27
2024-04-13T02:02:47.629Z,18.33
2024-04-13T02:05:51.900Z,19.35
2024-04-13T02:08:55.745Z,20.77
2024-04-13T02:11:59.490Z,20.00
2024-04-13T02:15:03.703Z,18.15
2024-04-13T02:18:08.037Z,18.58
2024-04-13T02:21:14.171Z,19.73
2024-04-13T02:24:18.476Z,19.58
2024-04-13T02:27:22.911Z,18.15
2024-04-13T02:30:26.590Z,17.77
2024-04-13T02:33:30.528Z,15.93
2024-04-13T02:36:34.495Z,14.70
2024-04-13T02:39:39.502Z,15.13
2024-04-13T02:42:43.378Z,13.43
2024-04-13T02:45:47.284Z,15.02
2024-04-13T02:48:51.000Z,14.68
2024-04-13T02:51:54.153Z,14.65
2024-04-13T02:54:58.149Z,14.00
2024-04-13T02:58:01.544Z,12.50
2024-04-13T03:01:06.363Z,12.93
2024-04-13T03:04:09.958Z,11.43
2024-04-13T03:07:14.382Z,11.18
2024-04-13T03:10:18.497Z,10.43
2024-04-13T03:13:22.427Z,10.45
2024-04-13T03:16:25.996Z,9.05
2024-04-13T03:19:29.533Z,9.30
2024-04-13T03:22:35.348Z,9.27
2024-04-13T03:25:40.488Z,10.40
2024-04-13T03:28:44.915Z,10.23
2024-04-13T03:31:49.701Z,10.32
2024-04-13T03:34:53.380Z,11.57
2024-04-13T03:37:59.350Z,10.48
2024-04-13T03:41:10.906Z,11.45
2024-04-13T03:44:14.455Z,10.05
2024-04-13T03:47:18.345Z,10.25
2024-04-13T03:50:23.103Z,10.82
2024-04-13T03:53:26.159Z,11.02
2024-04-13T03:56:30.505Z,11.80
2024-04-13T03:59:34.030Z,12.10
2024-04-13T04:02:37.809Z,13.35
2024-04-13T04:05:41.563Z,13.15
2024-04-13T04:08:45.449Z,11.43
2024-04-13T04:11:49.882Z,12.35
2024-04-13T04:14:53.483Z,11.48
2024-04-13T04:17:57.617Z,12.23
2024-04-13T04:21:01.932Z,12.20
2024-04-13T04:24:06.048Z,9.57
2024-04-13T04:27:10.107Z,6.25
2024-04-13T04:30:14.948Z,6.35
2024-04-13T04:33:18.729Z,11.40
2024-04-13T04:36:22.558Z,9.90
2024-04-13T04:39:26.982Z,8.98
2024-04-13T04:42:33.599Z,8.27
2024-04-13T04:45:39.146Z,7.38
2024-04-13T04:48:43.747Z,6.57
2024-04-13T04:51:47.495Z,5.88
2024-04-13T04:54:51.232Z,6.65
2024-04-13T04:57:54.344Z,6.53
2024-04-13T05:00:57.546Z,5.65
2024-04-13T05:04:01.774Z,6.72
2024-04-13T05:07:05.289Z,7.05
2024-04-13T05:10:10.876Z,6.72
2024-04-13T05:13:16.216Z,6.40
2024-04-13T05:16:20.633Z,6.32
2024-04-13T05:19:24.587Z,6.40
2024-04-13T05:22:28.920Z,6.40
2024-04-13T05:25:34.097Z,5.38
2024-04-13T05:28:37.907Z,4.97
2024-04-13T05:31:41.521Z,2.97
2024-04-13T05:34:44.570Z,2.60
2024-04-13T05:37:48.625Z,2.83
2024-04-13T05:40:53.978Z,2.30
2024-04-13T05:43:57.868Z,2.38
2024-04-13T05:47:01.522Z,1.90
2024-04-13T05:50:05.612Z,2.03
2024-04-13T05:53:09.985Z,2.50
2024-04-13T05:56:13.932Z,1.63
2024-04-13T05:59:18.596Z,1.80
2024-04-13T06:02:28.019Z,1.48
2024-04-13T06:05:32.518Z,1.60
2024-04-13T06:08:36.612Z,1.90
2024-04-13T06:11:40.149Z,3.50
2024-04-13T06:14:44.231Z,2.38
2024-04-13T06:17:48.690Z,1.77
2024-04-13T06:20:52.615Z,1.80
2024-04-13T06:23:56.458Z,1.70
2024-04-13T06:27:00.565Z,2.15
2024-04-13T06:30:04.282Z,1.95
2024-04-13T06:33:08.206Z,2.13
2024-04-13T06:36:12.085Z,1.70
2024-04-13T06:39:16.379Z,2.05
2024-04-13T06:42:21.004Z,1.80
2024-04-13T06:45:24.763Z,1.50
2024-04-13T06:48:28.999Z,1.60
2024-04-13T06:51:32.657Z,1.70
2024-04-13T06:54:37.053Z,1.63
2024-04-13T06:57:41.331Z,1.83
2024-04-13T07:00:45.678Z,1.90
2024-04-13T07:03:48.879Z,2.05
2024-04-13T07:06:52.114Z,1.88
2024-04-13T07:09:56.146Z,1.88
2024-04-13T07:12:59.450Z,1.77
2024-04-13T07:16:03.340Z,2.00
2024-04-13T07:19:06.866Z,1.70
2024-04-13T07:22:10.822Z,1.73
2024-04-13T07:25:14.328Z,2.15
2024-04-13T07:28:17.359Z,2.17
2024-04-13T07:31:21.011Z,1.85
2024-04-13T07:34:24.764Z,2.00
2024-04-13T07:37:28.497Z,1.77
2024-04-13T07:40:32.451Z,2.00
2024-04-13T07:43:36.016Z,1.52
2024-04-13T07:46:39.747Z,1.70
2024-04-13T07:49:44.162Z,1.65
2024-04-13T07:52:48.753Z,1.58
2024-04-13T07:55:53.100Z,1.52
2024-04-13T07:58:56.973Z,1.98
2024-04-13T08:02:00.532Z,1.85
2024-04-13T08:05:03.775Z,2.15
2024-04-13T08:08:07.318Z,2.05
2024-04-13T08:11:11.229Z,2.17
2024-04-13T08:14:16.513Z,2.03
2024-04-13T08:17:28.321Z,2.10
2024-04-13T08:20:32.518Z,2.10
2024-04-13T08:23:36.263Z,1.95
2024-04-13T08:26:39.756Z,2.22
2024-04-13T08:29:42.904Z,1.88
2024-04-13T08:32:50.394Z,2.13
2024-04-13T08:36:03.583Z,2.20
2024-04-13T08:39:12.356Z,2.40
2024-04-13T08:42:21.557Z,2.20
2024-04-13T08:45:27.293Z,2.38
2024-04-13T08:48:31.936Z,2.92
2024-04-13T08:51:38.511Z,2.80
2024-04-13T08:54:42.562Z,3.55
2024-04-13T08:57:47.976Z,3.50
2024-04-13T09:00:56.329Z,3.78
2024-04-13T09:04:01.080Z,4.28
2024-04-13T09:07:05.562Z,4.57
2024-04-13T09:10:12.163Z,4.60
2024-04-13T09:13:16.224Z,6.10
2024-04-13T09:16:21.884Z,6.53
2024-04-13T09:19:26.162Z,5.65
2024-04-13T09:22:31.042Z,5.80
2024-04-13T09:25:35.096Z,6.57
2024-04-13T09:28:49.322Z,7.18
2024-04-13T09:31:52.631Z,6.03
2024-04-13T09:34:57.595Z,5.25
2024-04-13T09:38:02.022Z,3.20
2024-04-13T09:41:06.050Z,2.40
2024-04-13T09:44:10.978Z,2.50
2024-04-13T09:47:15.761Z,3.17
2024-04-13T09:50:20.108Z,3.33
2024-04-13T09:53:24.325Z,4.10
2024-04-13T09:56:28.630Z,3.13
2024-04-13T09:59:35.617Z,3.45
2024-04-13T10:02:39.195Z,1.73
2024-04-13T10:05:45.903Z,2.00
2024-04-13T10:08:50.407Z,1.75
2024-04-13T10:11:57.649Z,2.42
2024-04-13T10:15:03.030Z,2.33
2024-04-13T10:18:08.372Z,2.58
2024-04-13T10:21:14.716Z,3.30
2024-04-13T10:24:19.506Z,3.25
2024-04-13T10:27:25.144Z,3.20
2024-04-13T10:30:32.055Z,3.70
2024-04-13T10:33:35.347Z,4.63
2024-04-13T10:36:38.686Z,4.07
2024-04-13T10:39:41.919Z,6.10
2024-04-13T10:42:46.841Z,6.60
2024-04-13T10:46:00.426Z,4.05
2024-04-13T10:49:06.504Z,3.53
2024-04-13T10:52:13.204Z,4.10
2024-04-13T10:55:19.794Z,4.03
2024-04-13T10:58:23.469Z,2.90
2024-04-13T11:01:26.863Z,5.53
2024-04-13T11:04:31.332Z,5.70
2024-04-13T11:07:36.991Z,4.70
2024-04-13T11:10:48.083Z,5.18
2024-04-13T11:13:51.850Z,5.45
2024-04-13T11:16:55.670Z,5.63
2024-04-13T11:20:00.757Z,6.68
2024-04-13T11:23:05.067Z,5.40
2024-04-13T11:26:10.072Z,7.50
2024-04-13T11:29:14.113Z,5.53
2024-04-13T11:32:19.247Z,5.50
2024-04-13T11:35:23.367Z,4.28
2024-04-13T11:38:31.382Z,4.90
2024-04-13T11:41:35.216Z,5.18
2024-04-13T11:44:42.113Z,4.70
2024-04-13T11:47:46.193Z,5.47
2024-04-13T11:50:57.505Z,4.05
2024-04-13T11:54:01.603Z,4.93
2024-04-13T11:57:15.183Z,5.15
2024-04-13T12:00:20.066Z,5.97
2024-04-13T12:03:24.465Z,6.40
2024-04-13T12:06:32.121Z,4.05
2024-04-13T12:09:35.755Z,3.63
2024-04-13T12:12:40.086Z,3.20
2024-04-13T12:15:44.827Z,2.20
2024-04-13T12:18:48.612Z,3.17
2024-04-13T12:21:52.937Z,3.50
2024-04-13T12:24:56.235Z,3.80
2024-04-13T12:28:01.593Z,3.15
2024-04-13T12:31:05.923Z,2.33
2024-04-13T12:34:10.045Z,1.85
2024-04-13T12:37:14.068Z,1.98
2024-04-13T12:40:19.818Z,2.10
2024-04-13T12:43:23.380Z,2.60
2024-04-13T12:46:26.637Z,2.75
2024-04-13T12:49:29.893Z,2.20
2024-04-13T12:52:33.763Z,2.60
2024-04-13T12:55:37.041Z,2.40
2024-04-13T12:58:41.245Z,2.70
2024-04-13T13:01:46.397Z,2.10
2024-04-13T13:04:49.633Z,2.30
2024-04-13T13:07:53.616Z,2.33
2024-04-13T13:10:56.820Z,2.55
2024-04-13T13:14:00.720Z,2.80
2024-04-13T13:17:05.274Z,2.70
2024-04-13T13:20:10.441Z,3.15
2024-04-13T13:23:14.380Z,3.70
2024-04-13T13:26:17.989Z,2.95
2024-04-13T13:29:21.069Z,2.83
2024-04-13T13:32:26.168Z,2.17
2024-04-13T13:35:29.686Z,2.58
2024-04-13T13:38:33.383Z,2.22
2024-04-13T13:41:42.273Z,2.67
2024-04-13T13:47:49.866Z,2.60
2024-04-13T13:50:53.387Z,3.22
2024-04-13T13:53:57.237Z,3.45
2024-04-13T13:57:00.942Z,3.78
2024-04-13T14:00:05.859Z,3.13
2024-04-13T14:03:12.537Z,2.72
2024-04-13T14:06:16.435Z,2.60
2024-04-13T14:09:19.858Z,4.07
2024-04-13T14:12:23.672Z,3.83
2024-04-13T14:15:26.785Z,4.07
2024-04-13T14:18:30.021Z,4.60
2024-04-13T14:21:37.827Z,4.57
2024-04-13T14:24:42.139Z,4.38
2024-04-13T14:27:45.569Z,5.82
2024-04-13T14:30:50.109Z,4.53
2024-04-13T14:33:54.452Z,5.03
2024-04-13T14:36:58.812Z,5.93
2024-04-13T14:40:02.494Z,6.68
2024-04-13T14:43:07.600Z,7.22
2024-04-13T14:46:11.699Z,7.25
2024-04-13T14:49:16.342Z,6.80
2024-04-13T14:52:20.282Z,6.60
2024-04-13T14:55:24.313Z,5.85
2024-04-13T14:58:28.123Z,6.00
2024-04-13T15:01:32.141Z,5.88
2024-04-13T15:04:36.104Z,5.18
2024-04-13T15:07:40.219Z,4.45
2024-04-13T15:10:48.269Z,4.13
2024-04-13T15:13:52.800Z,4.22
2024-04-13T15:16:56.152Z,4.43
2024-04-13T15:20:00.706Z,3.92
2024-04-13T15:23:05.113Z,4.78
2024-04-13T15:26:09.157Z,4.85
2024-04-13T15:29:13.044Z,5.55
2024-04-13T15:32:17.453Z,5.47
2024-04-13T15:35:21.584Z,5.32
2024-04-13T15:38:25.873Z,4.32
2024-04-13T15:41:29.689Z,4.82
2024-04-13T15:44:33.978Z,3.72
2024-04-13T15:47:38.034Z,4.80
2024-04-13T15:50:43.053Z,3.72
2024-04-13T15:53:46.577Z,3.90
2024-04-13T15:56:50.838Z,3.30
2024-04-13T15:59:55.192Z,3.22
2024-04-13T16:02:59.536Z,4.07
2024-04-13T16:06:06.897Z,3.10
2024-04-13T16:09:11.735Z,3.15
2024-04-13T16:12:15.618Z,2.55
2024-04-13T16:15:19.593Z,2.83
2024-04-13T16:18:23.533Z,2.92
2024-04-13T16:21:27.481Z,3.38
2024-04-13T16:24:31.290Z,3.25
2024-04-13T16:27:35.315Z,3.55
2024-04-13T16:30:39.418Z,3.03
2024-04-13T16:33:43.479Z,3.85
2024-04-13T16:36:48.348Z,3.88
2024-04-13T16:39:52.422Z,4.25
2024-04-13T16:42:57.770Z,3.38
2024-04-13T16:46:01.613Z,2.53
2024-04-13T16:49:05.621Z,3.47
2024-04-13T16:52:09.771Z,3.78
2024-04-13T16:55:13.904Z,3.83
2024-04-13T16:58:17.893Z,3.60
2024-04-13T17:01:21.814Z,3.80
2024-04-13T17:04:25.835Z,3.55
2024-04-13T17:07:29.625Z,2.78
2024-04-13T17:10:34.069Z,2.60
2024-04-13T17:13:37.972Z,2.40
2024-04-13T17:16:41.811Z,2.28
2024-04-13T17:19:46.372Z,2.80
2024-04-13T17:22:50.666Z,2.60
2024-04-13T17:25:54.219Z,2.67
2024-04-13T17:28:58.456Z,3.28
2024-04-13T17:32:01.940Z,3.00
2024-04-13T17:35:06.792Z,2.90
2024-04-13T17:38:10.647Z,2.85
2024-04-13T17:41:15.630Z,2.78
2024-04-13T17:44:19.538Z,2.60
2024-04-13T17:47:23.575Z,2.20
2024-04-13T17:50:27.433Z,2.05
2024-04-13T17:53:31.111Z,2.55
2024-04-13T17:56:36.108Z,2.38
2024-04-13T17:59:40.248Z,2.30
2024-04-13T18:02:44.113Z,2.30
2024-04-13T18:05:48.058Z,2.35
2024-04-13T18:08:51.802Z,2.00
2024-04-13T18:11:55.683Z,2.10
2024-04-13T18:14:59.522Z,2.13
2024-04-13T18:18:03.498Z,2.40
2024-04-13T18:21:07.570Z,2.63
2024-04-13T18:24:13.629Z,2.40
2024-04-13T18:27:17.514Z,2.50
2024-04-13T18:30:21.683Z,2.40
2024-04-13T18:33:25.600Z,2.78
2024-04-13T18:36:29.762Z,2.45
2024-04-13T18:39:34.025Z,2.53
2024-04-13T18:42:37.946Z,2.88
2024-04-13T18:45:41.756Z,2.42
2024-04-13T18:48:45.453Z,2.97
2024-04-13T18:51:49.489Z,2.90
2024-04-13T18:54:53.874Z,2.83
2024-04-13T18:57:57.716Z,3.13
2024-04-13T19:01:09.691Z,2.80
2024-04-13T19:04:13.936Z,2.80
2024-04-13T19:07:18.166Z,3.00
2024-04-13T19:10:21.711Z,2.83
2024-04-13T19:13:25.756Z,2.72
2024-04-13T19:16:29.720Z,2.55
2024-04-13T19:19:34.087Z,2.50
2024-04-13T19:22:37.884Z,2.97
2024-04-13T19:25:41.974Z,2.42
2024-04-13T19:28:45.760Z,2.53
2024-04-13T19:31:49.582Z,2.42
2024-04-13T19:34:53.519Z,2.85
2024-04-13T19:37:57.475Z,2.08
2024-04-13T19:41:01.382Z,2.30
2024-04-13T19:44:06.565Z,2.83
2024-04-13T19:47:10.082Z,2.38
2024-04-13T19:50:15.291Z,2.80
2024-04-13T19:53:18.753Z,2.75
2024-04-13T19:56:22.756Z,2.42
2024-04-13T19:59:26.184Z,2.35
2024-04-13T20:02:30.535Z,2.42
2024-04-13T20:05:37.950Z,2.90
2024-04-13T20:08:46.356Z,2.40
2024-04-13T20:11:50.155Z,2.53
2024-04-13T20:15:12.692Z,2.25
2024-04-13T20:18:35.274Z,2.25
2024-04-13T20:21:39.888Z,2.00
2024-04-13T20:24:43.754Z,1.80
2024-04-13T20:27:47.856Z,2.05
2024-04-13T20:30:52.063Z,2.15
2024-04-13T20:33:55.873Z,2.30
2024-04-13T20:36:59.851Z,2.05
2024-04-13T20:40:04.495Z,2.00
2024-04-13T20:43:10.441Z,1.92
2024-04-13T20:46:13.487Z,2.05
2024-04-13T20:49:17.433Z,2.08
2024-04-13T20:52:21.378Z,2.00
2024-04-13T20:55:25.106Z,1.90
2024-04-13T20:58:29.372Z,1.90
2024-04-13T21:01:33.322Z,1.88
2024-04-13T21:04:37.609Z,1.70
2024-04-13T21:07:41.370Z,1.90
2024-04-13T21:10:45.431Z,2.08
2024-04-13T21:13:48.562Z,1.63
2024-04-13T21:16:52.650Z,1.70
2024-04-13T21:19:57.819Z,1.50
2024-04-13T21:23:01.636Z,1.77
2024-04-13T21:26:05.898Z,1.75
2024-04-13T21:29:09.706Z,1.60
2024-04-13T21:32:13.351Z,2.10
2024-04-13T21:35:17.655Z,2.63
2024-04-13T21:38:21.629Z,2.00
2024-04-13T21:41:25.562Z,2.17
2024-04-13T21:44:30.941Z,1.80
2024-04-13T21:47:35.329Z,1.80
2024-04-13T21:50:39.438Z,1.83
2024-04-13T21:53:43.829Z,2.28
2024-04-13T21:56:47.395Z,2.20
2024-04-13T21:59:51.428Z,2.33
2024-04-13T22:02:54.997Z,2.50
2024-04-13T22:05:58.684Z,2.08
2024-04-13T22:09:01.948Z,2.65
2024-04-13T22:12:06.995Z,2.20
2024-04-13T22:15:14.302Z,2.50
2024-04-13T22:18:20.970Z,2.03
2024-04-13T22:21:24.883Z,2.25
2024-04-13T22:24:29.076Z,1.75
2024-04-13T22:27:32.584Z,2.40
2024-04-13T22:30:37.516Z,2.53
2024-04-13T22:33:40.952Z,2.33
2024-04-13T22:36:44.645Z,2.10
2024-04-13T22:39:48.514Z,2.55
2024-04-13T22:42:52.681Z,1.85
2024-04-13T22:45:56.631Z,1.90
2024-04-13T22:49:04.329Z,1.60
2024-04-13T22:52:10.200Z,1.60
2024-04-13T22:55:13.926Z,1.75
2024-04-13T22:58:17.782Z,1.95
2024-04-13T23:01:22.387Z,2.05
2024-04-13T23:04:26.470Z,1.58
2024-04-13T23:07:30.687Z,1.83
2024-04-13T23:10:34.245Z,1.33
2024-04-13T23:13:38.601Z,2.03
2024-04-13T23:16:42.108Z,1.70
2024-04-13T23:19:46.495Z,1.52
2024-04-13T23:22:52.502Z,1.85
2024-04-13T23:25:56.656Z,1.90
2024-04-13T23:29:00.104Z,1.55
2024-04-13T23:32:04.245Z,1.60
2024-04-13T23:35:08.236Z,2.00
2024-04-13T23:38:12.272Z,1.85
2024-04-13T23:41:16.221Z,2.15
2024-04-13T23:44:20.477Z,1.70
2024-04-13T23:47:23.804Z,2.00
2024-04-13T23:50:28.029Z,1.75
2024-04-13T23:53:32.785Z,1.65
2024-04-13T23:56:39.716Z,1.58
2024-04-13T23:59:43.449Z,1.80
